sensor_id;sensor_type;location;lat;lon;timestamp;pressure;altitude;pressure_sealevel;temperature;humidity
5883;BME280;2967;51.488;6.618;2023-05-19T00:04:24;102333.03;;;12.06;100.00
5883;BME280;2967;51.488;6.618;2023-05-19T00:09:28;102307.28;;;12.08;100.00
5883;BME280;2967;51.488;6.618;2023-05-19T00:14:32;102232.97;;;11.52;100.00
5883;BME280;2967;51.488;6.618;2023-05-19T00:19:41;102157.81;;;11.16;100.00
5883;BME280;2967;51.488;6.618;2023-05-19T00:24:46;102316.53;;;11.99;100.00
5883;BME280;2967;51.488;6.618;2023-05-19T00:29:49;102064.09;;;10.43;100.00
5883;BME280;2967;51.488;6.618;2023-05-19T00:34:54;102176.81;;;10.87;100.00
5883;BME280;2967;51.488;6.618;2023-05-19T00:40:06;101987.53;;;9.81;100.00
5883;BME280;2967;51.488;6.618;2023-05-19T00:45:11;102313.03;;;11.60;100.00
5883;BME280;2967;51.488;6.618;2023-05-19T00:50:16;102079.44;;;10.16;100.00
5883;BME280;2967;51.488;6.618;2023-05-19T00:55:20;102236.84;;;11.07;100.00
5883;BME280;2967;51.488;6.618;2023-05-19T01:00:24;102314.38;;;11.30;100.00
5883;BME280;2967;51.488;6.618;2023-05-19T01:05:28;101905.00;;;8.93;100.00
5883;BME280;2967;51.488;6.618;2023-05-19T01:10:37;101857.25;;;8.56;100.00
5883;BME280;2967;51.488;6.618;2023-05-19T01:15:56;102258.06;;;10.85;100.00
5883;BME280;2967;51.488;6.618;2023-05-19T01:26:45;102091.56;;;10.00;100.00
5883;BME280;2967;51.488;6.618;2023-05-19T01:31:58;102065.44;;;9.72;100.00
5883;BME280;2967;51.488;6.618;2023-05-19T01:37:03;102055.53;;;9.56;100.00
5883;BME280;2967;51.488;6.618;2023-05-19T01:42:07;101930.53;;;8.71;100.00
5883;BME280;2967;51.488;6.618;2023-05-19T01:47:12;102247.28;;;10.70;100.00
5883;BME280;2967;51.488;6.618;2023-05-19T01:52:16;102305.94;;;11.01;100.00
5883;BME280;2967;51.488;6.618;2023-05-19T01:57:23;102166.28;;;10.26;100.00
5883;BME280;2967;51.488;6.618;2023-05-19T02:02:44;102290.91;;;10.81;100.00
5883;BME280;2967;51.488;6.618;2023-05-19T02:07:57;102203.72;;;10.37;100.00
5883;BME280;2967;51.488;6.618;2023-05-19T02:13:05;102304.59;;;10.91;100.00
5883;BME280;2967;51.488;6.618;2023-05-19T02:18:13;102256.47;;;10.61;100.00
5883;BME280;2967;51.488;6.618;2023-05-19T02:23:18;102191.38;;;10.16;100.00
5883;BME280;2967;51.488;6.618;2023-05-19T02:28:21;102286.69;;;10.77;100.00
5883;BME280;2967;51.488;6.618;2023-05-19T02:33:29;102293.41;;;10.84;100.00
5883;BME280;2967;51.488;6.618;2023-05-19T02:38:48;101801.84;;;7.90;100.00
5883;BME280;2967;51.488;6.618;2023-05-19T02:43:52;102244.94;;;10.62;100.00
5883;BME280;2967;51.488;6.618;2023-05-19T02:48:56;102150.41;;;10.05;100.00
5883;BME280;2967;51.488;6.618;2023-05-19T02:54:01;102085.06;;;9.44;100.00
5883;BME280;2967;51.488;6.618;2023-05-19T02:59:05;102231.69;;;10.21;100.00
5883;BME280;2967;51.488;6.618;2023-05-19T03:04:10;102269.59;;;10.22;100.00
5883;BME280;2967;51.488;6.618;2023-05-19T03:09:17;102255.56;;;10.20;100.00
5883;BME280;2967;51.488;6.618;2023-05-19T03:14:21;102257.44;;;10.18;100.00
5883;BME280;2967;51.488;6.618;2023-05-19T03:19:30;102279.63;;;10.35;100.00
5883;BME280;2967;51.488;6.618;2023-05-19T03:24:47;102005.00;;;8.77;100.00
5883;BME280;2967;51.488;6.618;2023-05-19T03:29:52;102216.31;;;9.88;100.00
5883;BME280;2967;51.488;6.618;2023-05-19T03:34:57;101968.56;;;8.42;100.00
5883;BME280;2967;51.488;6.618;2023-05-19T03:40:04;102296.97;;;10.21;100.00
5883;BME280;2967;51.488;6.618;2023-05-19T03:45:14;102099.47;;;9.14;100.00
5883;BME280;2967;51.488;6.618;2023-05-19T03:50:25;101878.63;;;7.79;100.00
5883;BME280;2967;51.488;6.618;2023-05-19T03:55:45;102290.75;;;10.22;100.00
5883;BME280;2967;51.488;6.618;2023-05-19T04:00:50;102292.34;;;10.26;100.00
5883;BME280;2967;51.488;6.618;2023-05-19T04:05:54;102292.06;;;10.10;100.00
5883;BME280;2967;51.488;6.618;2023-05-19T04:10:57;102291.81;;;10.18;100.00
5883;BME280;2967;51.488;6.618;2023-05-19T04:16:00;102301.09;;;10.28;100.00
5883;BME280;2967;51.488;6.618;2023-05-19T04:21:06;102298.13;;;10.35;100.00
5883;BME280;2967;51.488;6.618;2023-05-19T04:26:09;102233.63;;;9.95;100.00
5883;BME280;2967;51.488;6.618;2023-05-19T04:31:13;102306.94;;;10.57;100.00
5883;BME280;2967;51.488;6.618;2023-05-19T04:36:23;102055.69;;;9.08;100.00
5883;BME280;2967;51.488;6.618;2023-05-19T04:41:27;102282.38;;;10.53;100.00
5883;BME280;2967;51.488;6.618;2023-05-19T04:46:31;102286.00;;;10.51;100.00
5883;BME280;2967;51.488;6.618;2023-05-19T04:51:40;102114.88;;;9.47;100.00
5883;BME280;2967;51.488;6.618;2023-05-19T04:56:43;102300.56;;;10.61;100.00
5883;BME280;2967;51.488;6.618;2023-05-19T05:01:46;102302.28;;;10.83;100.00
5883;BME280;2967;51.488;6.618;2023-05-19T05:06:52;102296.66;;;10.91;100.00
5883;BME280;2967;51.488;6.618;2023-05-19T05:11:57;102297.59;;;11.10;100.00
5883;BME280;2967;51.488;6.618;2023-05-19T05:17:01;102275.28;;;11.15;100.00
5883;BME280;2967;51.488;6.618;2023-05-19T05:22:19;102264.03;;;11.10;100.00
5883;BME280;2967;51.488;6.618;2023-05-19T05:27:24;102304.88;;;11.45;100.00
5883;BME280;2967;51.488;6.618;2023-05-19T05:32:31;102303.56;;;11.55;100.00
5883;BME280;2967;51.488;6.618;2023-05-19T05:37:55;102101.81;;;10.48;100.00
5883;BME280;2967;51.488;6.618;2023-05-19T05:42:58;102243.06;;;11.44;100.00
5883;BME280;2967;51.488;6.618;2023-05-19T05:48:06;102291.38;;;11.89;100.00
5883;BME280;2967;51.488;6.618;2023-05-19T05:53:15;102287.50;;;12.15;100.00
5883;BME280;2967;51.488;6.618;2023-05-19T05:58:19;102248.22;;;12.23;100.00
5883;BME280;2967;51.488;6.618;2023-05-19T06:03:22;102253.41;;;12.24;100.00
5883;BME280;2967;51.488;6.618;2023-05-19T06:08:28;102273.38;;;12.50;100.00
5883;BME280;2967;51.488;6.618;2023-05-19T06:13:31;102256.59;;;12.49;100.00
5883;BME280;2967;51.488;6.618;2023-05-19T06:18:34;102269.03;;;12.66;100.00
5883;BME280;2967;51.488;6.618;2023-05-19T06:23:38;102264.06;;;12.77;100.00
5883;BME280;2967;51.488;6.618;2023-05-19T06:28:44;102278.63;;;13.04;100.00
5883;BME280;2967;51.488;6.618;2023-05-19T06:33:47;102269.47;;;13.09;98.91
5883;BME280;2967;51.488;6.618;2023-05-19T06:38:51;102278.22;;;13.28;97.82
5883;BME280;2967;51.488;6.618;2023-05-19T06:43:54;102285.19;;;13.46;98.24
5883;BME280;2967;51.488;6.618;2023-05-19T06:48:57;102286.13;;;13.62;96.96
5883;BME280;2967;51.488;6.618;2023-05-19T06:54:09;102239.75;;;13.50;96.58
5883;BME280;2967;51.488;6.618;2023-05-19T06:59:15;102289.00;;;13.90;96.93
5883;BME280;2967;51.488;6.618;2023-05-19T07:04:18;102276.28;;;13.95;95.19
5883;BME280;2967;51.488;6.618;2023-05-19T07:09:23;102274.25;;;14.15;97.51
5883;BME280;2967;51.488;6.618;2023-05-19T07:14:34;102271.44;;;14.34;96.28
5883;BME280;2967;51.488;6.618;2023-05-19T07:19:39;102276.22;;;14.58;93.69
5883;BME280;2967;51.488;6.618;2023-05-19T07:24:45;102267.78;;;14.66;93.48
5883;BME280;2967;51.488;6.618;2023-05-19T07:29:50;102262.53;;;14.80;91.26
5883;BME280;2967;51.488;6.618;2023-05-19T07:34:53;102259.47;;;14.86;91.52
5883;BME280;2967;51.488;6.618;2023-05-19T07:39:57;102249.88;;;14.83;89.50
5883;BME280;2967;51.488;6.618;2023-05-19T07:45:04;102273.91;;;15.11;89.39
5883;BME280;2967;51.488;6.618;2023-05-19T07:50:17;102215.25;;;14.83;89.07
5883;BME280;2967;51.488;6.618;2023-05-19T07:55:22;102255.38;;;15.24;89.43
5883;BME280;2967;51.488;6.618;2023-05-19T08:00:28;102196.06;;;15.06;86.60
5883;BME280;2967;51.488;6.618;2023-05-19T08:05:33;102236.97;;;15.49;85.49
5883;BME280;2967;51.488;6.618;2023-05-19T08:10:37;102248.56;;;15.76;84.95
5883;BME280;2967;51.488;6.618;2023-05-19T08:15:40;102209.53;;;15.61;79.70
5883;BME280;2967;51.488;6.618;2023-05-19T08:20:43;102146.00;;;15.39;81.61
5883;BME280;2967;51.488;6.618;2023-05-19T08:25:48;102242.38;;;16.15;80.00
5883;BME280;2967;51.488;6.618;2023-05-19T08:30:50;102217.81;;;16.10;79.03
5883;BME280;2967;51.488;6.618;2023-05-19T08:35:54;102239.47;;;16.32;78.55
5883;BME280;2967;51.488;6.618;2023-05-19T08:41:00;102224.03;;;16.37;76.90
5883;BME280;2967;51.488;6.618;2023-05-19T08:46:09;102210.69;;;16.37;75.87
5883;BME280;2967;51.488;6.618;2023-05-19T08:51:30;102213.81;;;16.44;76.40
5883;BME280;2967;51.488;6.618;2023-05-19T08:56:38;102191.19;;;16.35;76.20
5883;BME280;2967;51.488;6.618;2023-05-19T09:01:43;102217.91;;;16.62;75.16
5883;BME280;2967;51.488;6.618;2023-05-19T09:06:46;102176.22;;;16.47;75.85
5883;BME280;2967;51.488;6.618;2023-05-19T09:11:52;102213.78;;;16.83;75.05
5883;BME280;2967;51.488;6.618;2023-05-19T09:17:05;102205.25;;;16.90;73.00
5883;BME280;2967;51.488;6.618;2023-05-19T09:22:08;102204.94;;;16.95;71.10
5883;BME280;2967;51.488;6.618;2023-05-19T09:27:14;102208.16;;;17.12;72.15
5883;BME280;2967;51.488;6.618;2023-05-19T09:32:26;102198.84;;;17.18;71.31
5883;BME280;2967;51.488;6.618;2023-05-19T09:37:29;102192.75;;;17.16;69.63
5883;BME280;2967;51.488;6.618;2023-05-19T09:42:36;102177.78;;;17.13;69.44
5883;BME280;2967;51.488;6.618;2023-05-19T09:47:40;102135.13;;;16.99;71.67
5883;BME280;2967;51.488;6.618;2023-05-19T09:52:43;102187.09;;;17.58;75.04
5883;BME280;2967;51.488;6.618;2023-05-19T09:57:48;102135.63;;;17.29;69.16
5883;BME280;2967;51.488;6.618;2023-05-19T10:02:52;102179.16;;;17.56;69.91
5883;BME280;2967;51.488;6.618;2023-05-19T10:07:56;102119.56;;;17.42;69.45
5883;BME280;2967;51.488;6.618;2023-05-19T10:13:01;102144.63;;;17.77;71.80
5883;BME280;2967;51.488;6.618;2023-05-19T10:18:05;102169.22;;;18.18;70.96
5883;BME280;2967;51.488;6.618;2023-05-19T10:23:10;102160.19;;;17.95;68.88
5883;BME280;2967;51.488;6.618;2023-05-19T10:28:17;102166.19;;;17.99;70.73
5883;BME280;2967;51.488;6.618;2023-05-19T10:33:38;102137.50;;;17.88;72.01
5883;BME280;2967;51.488;6.618;2023-05-19T10:38:47;102154.59;;;17.98;71.80
5883;BME280;2967;51.488;6.618;2023-05-19T10:44:03;102141.34;;;17.97;66.14
5883;BME280;2967;51.488;6.618;2023-05-19T10:49:09;102160.94;;;17.97;68.34
5883;BME280;2967;51.488;6.618;2023-05-19T10:54:12;102150.41;;;18.07;71.79
5883;BME280;2967;51.488;6.618;2023-05-19T10:59:36;102075.16;;;17.75;73.64
5883;BME280;2967;51.488;6.618;2023-05-19T11:04:45;102075.38;;;17.72;71.21
5883;BME280;2967;51.488;6.618;2023-05-19T11:09:53;102044.88;;;17.75;71.44
5883;BME280;2967;51.488;6.618;2023-05-19T11:15:01;102110.75;;;18.35;69.81
5883;BME280;2967;51.488;6.618;2023-05-19T11:20:11;102135.53;;;18.61;70.46
5883;BME280;2967;51.488;6.618;2023-05-19T11:25:39;102149.13;;;18.81;70.16
5883;BME280;2967;51.488;6.618;2023-05-19T11:30:45;102124.75;;;18.95;73.67
5883;BME280;2967;51.488;6.618;2023-05-19T11:35:50;102141.13;;;19.14;66.72
5883;BME280;2967;51.488;6.618;2023-05-19T11:40:55;102128.34;;;19.28;67.85
5883;BME280;2967;51.488;6.618;2023-05-19T11:45:59;102126.16;;;19.44;67.72
5883;BME280;2967;51.488;6.618;2023-05-19T11:51:06;102126.16;;;19.55;66.70
5883;BME280;2967;51.488;6.618;2023-05-19T11:56:15;102123.81;;;19.62;65.79
5883;BME280;2967;51.488;6.618;2023-05-19T12:01:22;102114.13;;;19.81;66.27
5883;BME280;2967;51.488;6.618;2023-05-19T12:06:27;102101.59;;;20.02;61.12
5883;BME280;2967;51.488;6.618;2023-05-19T12:11:33;102070.97;;;20.05;64.74
5883;BME280;2967;51.488;6.618;2023-05-19T12:16:37;102099.59;;;20.67;64.03
5883;BME280;2967;51.488;6.618;2023-05-19T12:21:41;102090.97;;;20.73;62.55
5883;BME280;2967;51.488;6.618;2023-05-19T12:26:46;102102.16;;;20.89;59.88
5883;BME280;2967;51.488;6.618;2023-05-19T12:31:52;102093.72;;;21.03;61.86
5883;BME280;2967;51.488;6.618;2023-05-19T12:36:55;102060.78;;;21.11;57.49
5883;BME280;2967;51.488;6.618;2023-05-19T12:42:01;102084.09;;;21.31;59.54
5883;BME280;2967;51.488;6.618;2023-05-19T12:47:06;102080.69;;;21.38;64.69
5883;BME280;2967;51.488;6.618;2023-05-19T12:52:12;102067.28;;;21.57;59.21
5883;BME280;2967;51.488;6.618;2023-05-19T12:57:15;102066.31;;;21.58;62.94
5883;BME280;2967;51.488;6.618;2023-05-19T13:02:27;102061.81;;;21.77;61.75
5883;BME280;2967;51.488;6.618;2023-05-19T13:07:34;102033.59;;;21.72;62.95
5883;BME280;2967;51.488;6.618;2023-05-19T13:12:37;102065.94;;;22.10;57.75
5883;BME280;2967;51.488;6.618;2023-05-19T13:17:43;102054.72;;;22.24;58.42
5883;BME280;2967;51.488;6.618;2023-05-19T13:22:47;101912.50;;;21.61;59.29
5883;BME280;2967;51.488;6.618;2023-05-19T13:27:51;102005.75;;;22.47;53.93
5883;BME280;2967;51.488;6.618;2023-05-19T13:32:56;102027.19;;;22.95;53.99
5883;BME280;2967;51.488;6.618;2023-05-19T13:37:59;102020.72;;;23.05;57.71
5883;BME280;2967;51.488;6.618;2023-05-19T13:43:04;102048.50;;;23.69;55.34
5883;BME280;2967;51.488;6.618;2023-05-19T13:48:10;101976.31;;;23.79;52.68
5883;BME280;2967;51.488;6.618;2023-05-19T13:53:56;101826.47;;;23.31;55.16
5883;BME280;2967;51.488;6.618;2023-05-19T13:58:48;102043.69;;;25.01;47.80
5883;BME280;2967;51.488;6.618;2023-05-19T14:04:05;102031.38;;;25.40;47.17
5883;BME280;2967;51.488;6.618;2023-05-19T14:09:08;101992.28;;;25.51;44.43
5883;BME280;2967;51.488;6.618;2023-05-19T14:14:11;102018.28;;;25.93;48.27
5883;BME280;2967;51.488;6.618;2023-05-19T14:19:15;101987.94;;;25.98;50.08
5883;BME280;2967;51.488;6.618;2023-05-19T14:24:19;102019.31;;;26.16;45.92
5883;BME280;2967;51.488;6.618;2023-05-19T14:29:21;102009.53;;;25.50;48.93
5883;BME280;2967;51.488;6.618;2023-05-19T14:34:25;102004.47;;;24.80;50.62
5883;BME280;2967;51.488;6.618;2023-05-19T14:39:29;102008.59;;;24.33;47.16
5883;BME280;2967;51.488;6.618;2023-05-19T14:44:33;102009.25;;;23.92;49.80
5883;BME280;2967;51.488;6.618;2023-05-19T14:49:39;102002.25;;;23.37;51.76
5883;BME280;2967;51.488;6.618;2023-05-19T14:54:41;101982.44;;;22.92;52.58
5883;BME280;2967;51.488;6.618;2023-05-19T14:59:44;101974.09;;;22.49;57.08
5883;BME280;2967;51.488;6.618;2023-05-19T15:04:48;102000.66;;;22.35;55.18
5883;BME280;2967;51.488;6.618;2023-05-19T15:09:51;101992.59;;;22.06;54.75
5883;BME280;2967;51.488;6.618;2023-05-19T15:14:54;102002.94;;;22.11;52.74
5883;BME280;2967;51.488;6.618;2023-05-19T15:19:58;101992.03;;;21.84;53.05
5883;BME280;2967;51.488;6.618;2023-05-19T15:25:01;101956.84;;;21.48;55.74
5883;BME280;2967;51.488;6.618;2023-05-19T15:30:05;101986.47;;;21.48;57.38
5883;BME280;2967;51.488;6.618;2023-05-19T15:35:09;101987.88;;;21.42;56.36
5883;BME280;2967;51.488;6.618;2023-05-19T15:40:13;101979.34;;;21.18;56.24
5883;BME280;2967;51.488;6.618;2023-05-19T15:45:15;101974.50;;;21.03;57.39
5883;BME280;2967;51.488;6.618;2023-05-19T15:50:20;101970.22;;;21.00;55.29
5883;BME280;2967;51.488;6.618;2023-05-19T15:55:23;101965.97;;;20.98;55.49
5883;BME280;2967;51.488;6.618;2023-05-19T16:00:26;101952.88;;;20.84;57.27
5883;BME280;2967;51.488;6.618;2023-05-19T16:05:30;101976.91;;;20.76;58.19
5883;BME280;2967;51.488;6.618;2023-05-19T16:10:34;101953.78;;;20.64;58.15
5883;BME280;2967;51.488;6.618;2023-05-19T16:15:37;101907.31;;;20.22;58.93
5883;BME280;2967;51.488;6.618;2023-05-19T16:20:44;101940.25;;;20.45;58.88
5883;BME280;2967;51.488;6.618;2023-05-19T16:25:47;101956.13;;;20.48;58.94
5883;BME280;2967;51.488;6.618;2023-05-19T16:30:50;101951.53;;;20.39;60.73
5883;BME280;2967;51.488;6.618;2023-05-19T16:35:56;101949.69;;;20.30;60.82
5883;BME280;2967;51.488;6.618;2023-05-19T16:41:05;101930.47;;;20.14;60.49
5883;BME280;2967;51.488;6.618;2023-05-19T16:46:07;101946.00;;;20.10;61.32
5883;BME280;2967;51.488;6.618;2023-05-19T16:51:14;101919.59;;;19.95;60.81
5883;BME280;2967;51.488;6.618;2023-05-19T16:56:17;101943.25;;;20.01;59.74
5883;BME280;2967;51.488;6.618;2023-05-19T17:01:20;101918.06;;;19.81;60.57
5883;BME280;2967;51.488;6.618;2023-05-19T17:06:36;101946.78;;;19.81;62.28
5883;BME280;2967;51.488;6.618;2023-05-19T17:11:42;101927.22;;;19.79;59.95
5883;BME280;2967;51.488;6.618;2023-05-19T17:16:47;101731.41;;;18.64;57.89
5883;BME280;2967;51.488;6.618;2023-05-19T17:21:52;101924.50;;;19.69;61.29
5883;BME280;2967;51.488;6.618;2023-05-19T17:26:56;101903.63;;;19.41;60.81
5883;BME280;2967;51.488;6.618;2023-05-19T17:31:59;101897.59;;;19.28;60.66
5883;BME280;2967;51.488;6.618;2023-05-19T17:37:16;101913.22;;;19.23;61.37
5883;BME280;2967;51.488;6.618;2023-05-19T17:43:10;101782.25;;;18.44;60.81
5883;BME280;2967;51.488;6.618;2023-05-19T17:48:45;101877.97;;;18.85;61.66
5883;BME280;2967;51.488;6.618;2023-05-19T18:21:32;101949.13;;;18.89;62.03
5883;BME280;2967;51.488;6.618;2023-05-19T18:26:35;101780.09;;;17.83;62.37
5883;BME280;2967;51.488;6.618;2023-05-19T18:31:42;101785.44;;;17.72;64.76
5883;BME280;2967;51.488;6.618;2023-05-19T18:36:46;101941.47;;;18.52;64.09
5883;BME280;2967;51.488;6.618;2023-05-19T18:41:49;101957.81;;;18.60;64.42
5883;BME280;2967;51.488;6.618;2023-05-19T18:46:52;101875.66;;;17.93;64.80
5883;BME280;2967;51.488;6.618;2023-05-19T18:51:56;101965.94;;;18.37;66.39
5883;BME280;2967;51.488;6.618;2023-05-19T18:56:59;101966.56;;;18.29;66.35
5883;BME280;2967;51.488;6.618;2023-05-19T19:02:04;101962.38;;;18.25;66.32
5883;BME280;2967;51.488;6.618;2023-05-19T19:07:08;101927.50;;;17.92;66.70
5883;BME280;2967;51.488;6.618;2023-05-19T19:12:11;101894.47;;;17.70;67.34
5883;BME280;2967;51.488;6.618;2023-05-19T19:17:13;101963.28;;;17.91;68.17
5883;BME280;2967;51.488;6.618;2023-05-19T19:22:18;101972.00;;;17.82;68.16
5883;BME280;2967;51.488;6.618;2023-05-19T19:27:25;101966.69;;;17.59;68.77
5883;BME280;2967;51.488;6.618;2023-05-19T19:32:31;101999.81;;;17.69;69.25
5883;BME280;2967;51.488;6.618;2023-05-19T19:37:35;102000.03;;;17.66;69.86
5883;BME280;2967;51.488;6.618;2023-05-19T19:42:41;101978.00;;;17.39;70.09
5883;BME280;2967;51.488;6.618;2023-05-19T19:47:44;101974.28;;;17.29;70.82
5883;BME280;2967;51.488;6.618;2023-05-19T19:52:48;102012.56;;;17.42;71.35
5883;BME280;2967;51.488;6.618;2023-05-19T19:57:52;102015.38;;;17.40;71.85
5883;BME280;2967;51.488;6.618;2023-05-19T20:02:56;102026.56;;;17.33;72.88
5883;BME280;2967;51.488;6.618;2023-05-19T20:08:07;101940.88;;;16.75;73.36
5883;BME280;2967;51.488;6.618;2023-05-19T20:13:10;102020.38;;;16.96;75.11
5883;BME280;2967;51.488;6.618;2023-05-19T20:18:13;102019.22;;;16.75;75.14
5883;BME280;2967;51.488;6.618;2023-05-19T20:23:18;102016.34;;;16.66;75.18
5883;BME280;2967;51.488;6.618;2023-05-19T20:28:20;102022.75;;;16.63;75.53
5883;BME280;2967;51.488;6.618;2023-05-19T20:33:24;102035.81;;;16.68;76.02
5883;BME280;2967;51.488;6.618;2023-05-19T20:38:29;102028.44;;;16.71;75.86
5883;BME280;2967;51.488;6.618;2023-05-19T20:43:32;102042.22;;;16.65;76.67
5883;BME280;2967;51.488;6.618;2023-05-19T20:48:36;102016.16;;;16.44;76.49
5883;BME280;2967;51.488;6.618;2023-05-19T20:53:40;102041.69;;;16.60;76.72
5883;BME280;2967;51.488;6.618;2023-05-19T20:58:43;102039.44;;;16.54;75.66
5883;BME280;2967;51.488;6.618;2023-05-19T21:03:46;102052.56;;;16.57;76.00
5883;BME280;2967;51.488;6.618;2023-05-19T21:08:50;102037.31;;;16.47;77.01
5883;BME280;2967;51.488;6.618;2023-05-19T21:13:53;101987.47;;;16.08;77.87
5883;BME280;2967;51.488;6.618;2023-05-19T21:18:57;102047.66;;;16.39;78.29
5883;BME280;2967;51.488;6.618;2023-05-19T21:24:01;101980.50;;;15.93;77.27
5883;BME280;2967;51.488;6.618;2023-05-19T21:29:04;102048.78;;;16.22;78.00
5883;BME280;2967;51.488;6.618;2023-05-19T21:34:09;102050.81;;;16.19;78.20
5883;BME280;2967;51.488;6.618;2023-05-19T21:39:14;102007.19;;;15.93;78.35
5883;BME280;2967;51.488;6.618;2023-05-19T21:44:24;101989.56;;;15.79;77.95
5883;BME280;2967;51.488;6.618;2023-05-19T21:49:27;102019.78;;;15.92;78.24
5883;BME280;2967;51.488;6.618;2023-05-19T21:54:31;102023.50;;;15.89;78.32
5883;BME280;2967;51.488;6.618;2023-05-19T21:59:39;102018.69;;;15.82;78.24
5883;BME280;2967;51.488;6.618;2023-05-19T22:04:44;102057.38;;;16.01;78.91
5883;BME280;2967;51.488;6.618;2023-05-19T22:09:48;102058.66;;;15.95;79.08
5883;BME280;2967;51.488;6.618;2023-05-19T22:14:53;102051.25;;;15.87;79.45
5883;BME280;2967;51.488;6.618;2023-05-19T22:19:56;102052.63;;;15.80;80.63
5883;BME280;2967;51.488;6.618;2023-05-19T22:25:02;101970.88;;;15.26;79.67
5883;BME280;2967;51.488;6.618;2023-05-19T22:30:08;102035.31;;;15.73;80.38
5883;BME280;2967;51.488;6.618;2023-05-19T22:35:13;102001.63;;;15.45;80.64
5883;BME280;2967;51.488;6.618;2023-05-19T22:40:18;102049.81;;;15.69;80.68
5883;BME280;2967;51.488;6.618;2023-05-19T22:45:21;102034.91;;;15.52;80.29
5883;BME280;2967;51.488;6.618;2023-05-19T22:50:24;101920.94;;;14.89;80.49
5883;BME280;2967;51.488;6.618;2023-05-19T22:55:28;102042.16;;;15.50;82.19
5883;BME280;2967;51.488;6.618;2023-05-19T23:00:31;102018.28;;;15.35;82.78
5883;BME280;2967;51.488;6.618;2023-05-19T23:05:34;102037.31;;;15.43;83.70
5883;BME280;2967;51.488;6.618;2023-05-19T23:10:44;102029.91;;;15.34;83.64
5883;BME280;2967;51.488;6.618;2023-05-19T23:15:47;101850.38;;;14.27;83.10
5883;BME280;2967;51.488;6.618;2023-05-19T23:20:50;101862.94;;;14.25;83.45
5883;BME280;2967;51.488;6.618;2023-05-19T23:25:54;102032.09;;;15.27;83.83
5883;BME280;2967;51.488;6.618;2023-05-19T23:30:57;102036.59;;;15.13;85.59
5883;BME280;2967;51.488;6.618;2023-05-19T23:36:04;101937.63;;;14.36;85.85
5883;BME280;2967;51.488;6.618;2023-05-19T23:41:09;101826.94;;;13.48;87.10
5883;BME280;2967;51.488;6.618;2023-05-19T23:46:11;102047.19;;;14.72;88.22
5883;BME280;2967;51.488;6.618;2023-05-19T23:51:15;102048.06;;;14.73;87.84
5883;BME280;2967;51.488;6.618;2023-05-19T23:56:19;102029.22;;;14.76;88.59
